createdAt,value
2019-03-19T00:00:30.527Z,0.80
2019-03-19T00:03:01.351Z,0.82
2019-03-19T00:05:37.224Z,0.82
2019-03-19T00:08:08.051Z,0.82
2019-03-19T00:10:43.234Z,0.85
2019-03-19T00:13:14.432Z,0.84
2019-03-19T00:15:46.746Z,0.84
2019-03-19T00:18:17.569Z,0.92
2019-03-19T00:20:48.380Z,0.97
2019-03-19T00:23:20.841Z,1.00
2019-03-19T00:25:53.216Z,1.01
2019-03-19T00:28:27.310Z,1.05
2019-03-19T00:30:58.066Z,1.06
2019-03-19T00:33:28.957Z,1.09
2019-03-19T00:36:00.050Z,1.09
2019-03-19T00:38:30.900Z,1.10
2019-03-19T00:41:01.699Z,1.08
2019-03-19T00:43:32.571Z,1.05
2019-03-19T00:46:06.408Z,1.08
2019-03-19T00:48:37.633Z,1.08
2019-03-19T00:51:08.433Z,1.05
2019-03-19T00:53:40.016Z,1.04
2019-03-19T00:56:10.860Z,1.07
2019-03-19T00:58:47.429Z,1.10
2019-03-19T01:01:18.226Z,1.13
2019-03-19T01:03:49.585Z,1.11
2019-03-19T01:06:20.333Z,1.11
2019-03-19T01:08:51.188Z,1.09
2019-03-19T01:11:26.924Z,1.05
2019-03-19T01:14:01.567Z,0.98
2019-03-19T01:16:33.525Z,0.98
2019-03-19T01:19:04.759Z,0.94
2019-03-19T01:21:35.594Z,0.91
2019-03-19T01:24:10.968Z,0.87
2019-03-19T01:26:41.746Z,0.84
2019-03-19T01:29:12.690Z,0.82
2019-03-19T01:31:44.995Z,0.76
2019-03-19T01:34:24.137Z,0.75
2019-03-19T01:36:54.550Z,0.74
2019-03-19T01:39:26.064Z,0.69
2019-03-19T01:41:58.135Z,0.68
2019-03-19T01:44:30.827Z,0.61
2019-03-19T01:47:07.254Z,0.55
2019-03-19T01:49:39.231Z,0.57
2019-03-19T01:52:10.188Z,0.59
2019-03-19T01:54:41.955Z,0.55
2019-03-19T01:57:12.791Z,0.51
2019-03-19T01:59:46.550Z,0.50
2019-03-19T02:02:17.673Z,0.50
2019-03-19T02:04:49.036Z,0.48
2019-03-19T02:07:19.872Z,0.53
2019-03-19T02:09:50.737Z,0.51
2019-03-19T02:12:21.619Z,0.46
2019-03-19T02:14:52.884Z,0.44
2019-03-19T02:17:23.713Z,0.44
2019-03-19T02:20:00.438Z,0.41
2019-03-19T02:22:31.506Z,0.43
2019-03-19T02:25:02.370Z,0.42
2019-03-19T02:27:45.496Z,0.43
2019-03-19T02:30:17.377Z,0.38
2019-03-19T02:32:48.183Z,0.34
2019-03-19T02:35:19.041Z,0.27
2019-03-19T02:37:49.886Z,0.24
2019-03-19T02:40:20.666Z,0.20
2019-03-19T02:42:52.033Z,0.18
2019-03-19T02:45:22.920Z,0.18
2019-03-19T02:47:53.805Z,0.14
2019-03-19T02:50:26.119Z,0.09
2019-03-19T02:52:57.986Z,0.04
2019-03-19T02:55:28.842Z,0.04
2019-03-19T02:58:00.052Z,0.04
2019-03-19T03:00:30.858Z,0.02
2019-03-19T03:03:01.758Z,-0.05
2019-03-19T03:05:32.858Z,-0.04
2019-03-19T03:08:04.645Z,0.00
2019-03-19T03:10:35.446Z,-0.07
2019-03-19T03:13:12.051Z,-0.12
2019-03-19T03:15:44.350Z,-0.19
2019-03-19T03:18:15.187Z,-0.19
2019-03-19T03:20:46.254Z,-0.22
2019-03-19T03:23:17.143Z,-0.26
2019-03-19T03:25:47.929Z,-0.31
2019-03-19T03:28:19.171Z,-0.34
2019-03-19T03:30:49.998Z,-0.39
2019-03-19T03:33:24.281Z,-0.42
2019-03-19T03:35:55.686Z,-0.45
2019-03-19T03:38:26.580Z,-0.50
2019-03-19T03:41:03.827Z,-0.51
2019-03-19T03:43:35.914Z,-0.50
2019-03-19T03:46:07.030Z,-0.49
2019-03-19T03:48:38.257Z,-0.51
2019-03-19T03:51:10.136Z,-0.51
2019-03-19T03:53:40.952Z,-0.55
2019-03-19T03:56:12.019Z,-0.57
2019-03-19T03:58:43.253Z,-0.56
2019-03-19T04:01:14.343Z,-0.56
2019-03-19T04:03:45.125Z,-0.57
2019-03-19T04:06:15.965Z,-0.57
2019-03-19T04:08:46.730Z,-0.62
2019-03-19T04:11:17.567Z,-0.64
2019-03-19T04:13:48.417Z,-0.65
2019-03-19T04:16:19.506Z,-0.65
2019-03-19T04:18:50.359Z,-0.66
2019-03-19T04:21:21.228Z,-0.68
2019-03-19T04:23:54.987Z,-0.67
2019-03-19T04:26:25.852Z,-0.65
2019-03-19T04:28:56.690Z,-0.63
2019-03-19T04:31:27.875Z,-0.62
2019-03-19T04:33:58.745Z,-0.66
2019-03-19T04:36:30.722Z,-0.67
2019-03-19T04:39:01.755Z,-0.74
2019-03-19T04:41:33.639Z,-0.71
2019-03-19T04:44:05.056Z,-0.73
2019-03-19T04:46:37.135Z,-0.74
2019-03-19T04:49:08.456Z,-0.75
2019-03-19T04:51:39.352Z,-0.76
2019-03-19T04:54:10.195Z,-0.79
2019-03-19T04:56:41.072Z,-0.83
2019-03-19T04:59:11.941Z,-0.89
2019-03-19T05:01:42.746Z,-0.85
2019-03-19T05:04:13.617Z,-0.84
2019-03-19T05:06:44.467Z,-0.83
2019-03-19T05:09:15.526Z,-0.80
2019-03-19T05:11:46.735Z,-0.78
2019-03-19T05:14:17.533Z,-0.71
2019-03-19T05:16:48.349Z,-0.69
2019-03-19T05:19:20.013Z,-0.69
2019-03-19T05:21:50.847Z,-0.67
2019-03-19T05:24:21.616Z,-0.67
2019-03-19T05:26:55.584Z,-0.62
2019-03-19T05:29:26.719Z,-0.57
2019-03-19T05:31:57.529Z,-0.52
2019-03-19T05:34:28.377Z,-0.51
2019-03-19T05:37:05.412Z,-0.46
2019-03-19T05:39:37.025Z,-0.43
2019-03-19T05:42:08.242Z,-0.45
2019-03-19T05:44:39.264Z,-0.38
2019-03-19T05:47:10.101Z,-0.34
2019-03-19T05:49:41.006Z,-0.33
2019-03-19T05:52:12.378Z,-0.33
2019-03-19T05:54:43.296Z,-0.28
2019-03-19T05:57:14.125Z,-0.18
2019-03-19T05:59:46.838Z,-0.11
2019-03-19T06:02:17.726Z,-0.04
2019-03-19T06:04:48.668Z,-0.06
2019-03-19T06:07:21.065Z,-0.09
2019-03-19T06:09:53.453Z,-0.08
2019-03-19T06:12:24.555Z,-0.06
2019-03-19T06:14:55.373Z,-0.03
2019-03-19T06:17:26.690Z,0.04
2019-03-19T06:19:57.500Z,0.12
2019-03-19T06:22:28.289Z,0.23
2019-03-19T06:24:59.101Z,0.31
2019-03-19T06:27:30.961Z,0.39
2019-03-19T06:30:01.775Z,0.43
2019-03-19T06:32:32.651Z,0.48
2019-03-19T06:35:03.876Z,0.49
2019-03-19T06:37:35.012Z,0.52
2019-03-19T06:40:06.849Z,0.53
2019-03-19T06:42:37.630Z,0.54
2019-03-19T06:45:09.828Z,0.56
2019-03-19T06:47:43.456Z,0.57
2019-03-19T06:50:14.921Z,0.57
2019-03-19T06:52:47.280Z,0.60
2019-03-19T06:55:18.299Z,0.59
2019-03-19T06:57:49.041Z,0.60
2019-03-19T07:00:24.293Z,0.55
2019-03-19T07:03:00.722Z,0.59
2019-03-19T07:05:31.136Z,0.57
2019-03-19T07:08:02.139Z,0.59
2019-03-19T07:10:33.244Z,0.64
2019-03-19T07:13:04.934Z,0.82
2019-03-19T07:15:35.772Z,0.93
2019-03-19T07:18:06.813Z,1.03
2019-03-19T07:20:37.654Z,1.10
2019-03-19T07:23:08.476Z,1.19
2019-03-19T07:25:39.573Z,1.27
2019-03-19T07:28:21.389Z,1.29
2019-03-19T07:30:43.005Z,1.34
2019-03-19T07:33:17.751Z,1.34
2019-03-19T07:35:49.119Z,1.37
2019-03-19T07:38:20.016Z,1.41
2019-03-19T07:40:50.951Z,1.49
2019-03-19T07:43:24.930Z,1.55
2019-03-19T07:45:56.655Z,1.59
2019-03-19T07:48:30.215Z,1.62
2019-03-19T07:51:03.902Z,1.62
2019-03-19T07:53:35.066Z,1.63
2019-03-19T07:56:17.763Z,1.59
2019-03-19T07:58:51.709Z,1.61
2019-03-19T08:01:30.423Z,1.65
2019-03-19T08:04:10.697Z,1.68
2019-03-19T08:06:41.492Z,1.71
2019-03-19T08:09:14.286Z,1.70
2019-03-19T08:11:45.142Z,1.70
2019-03-19T08:14:20.830Z,1.71
2019-03-19T08:16:53.292Z,1.80
2019-03-19T08:19:24.450Z,1.97
2019-03-19T08:21:58.306Z,2.19
2019-03-19T08:24:29.722Z,2.38
2019-03-19T08:27:00.831Z,2.44
2019-03-19T08:29:41.226Z,2.54
2019-03-19T08:32:17.306Z,2.51
2019-03-19T08:34:48.172Z,2.60
2019-03-19T08:37:20.949Z,2.68
2019-03-19T08:39:54.135Z,2.80
2019-03-19T08:42:29.645Z,2.96
2019-03-19T08:45:00.855Z,3.10
2019-03-19T08:47:31.676Z,3.23
2019-03-19T08:50:02.832Z,3.24
2019-03-19T08:52:33.933Z,3.35
2019-03-19T08:55:05.103Z,3.49
2019-03-19T08:57:38.880Z,3.38
2019-03-19T09:00:13.851Z,3.42
2019-03-19T09:03:01.635Z,3.46
2019-03-19T09:05:35.539Z,3.60
2019-03-19T09:08:10.124Z,3.63
2019-03-19T09:10:44.949Z,3.62
2019-03-19T09:13:16.198Z,3.51
2019-03-19T09:15:47.534Z,3.47
2019-03-19T09:18:25.150Z,3.47
2019-03-19T09:20:55.951Z,3.48
2019-03-19T09:23:27.251Z,3.55
2019-03-19T09:26:06.277Z,3.52
2019-03-19T09:28:40.406Z,3.41
2019-03-19T09:31:12.140Z,3.50
2019-03-19T09:33:46.744Z,3.42
2019-03-19T09:36:17.734Z,3.40
2019-03-19T09:38:49.716Z,3.30
2019-03-19T09:41:26.644Z,3.35
2019-03-19T09:44:05.141Z,3.32
2019-03-19T09:46:38.428Z,3.34
2019-03-19T09:49:09.254Z,3.46
2019-03-19T09:51:40.002Z,3.62
2019-03-19T09:54:11.149Z,4.30
2019-03-19T09:56:41.934Z,4.53
2019-03-19T09:59:13.374Z,4.55
2019-03-19T10:01:44.217Z,4.51
2019-03-19T10:05:06.348Z,4.42
2019-03-19T10:08:15.189Z,4.39
2019-03-19T10:10:55.572Z,4.36
2019-03-19T10:13:26.432Z,4.47
2019-03-19T10:15:57.644Z,4.93
2019-03-19T10:18:31.561Z,5.33
2019-03-19T10:21:11.257Z,5.58
2019-03-19T10:23:42.524Z,5.37
2019-03-19T10:26:17.095Z,5.18
2019-03-19T10:28:48.387Z,5.15
2019-03-19T10:31:19.365Z,5.27
2019-03-19T10:34:11.799Z,5.94
2019-03-19T10:36:59.109Z,6.24
2019-03-19T10:39:30.719Z,6.54
2019-03-19T10:42:01.631Z,6.59
2019-03-19T10:44:36.287Z,6.33
2019-03-19T10:47:16.200Z,6.34
2019-03-19T10:49:47.074Z,6.01
2019-03-19T10:52:19.690Z,5.80
2019-03-19T10:54:53.890Z,5.97
2019-03-19T10:57:28.086Z,6.25
2019-03-19T11:00:10.633Z,6.92
2019-03-19T11:02:41.523Z,7.13
2019-03-19T11:05:12.801Z,7.64
2019-03-19T11:07:47.148Z,8.07
2019-03-19T11:10:18.053Z,8.62
2019-03-19T11:12:50.442Z,8.98
2019-03-19T11:15:23.130Z,8.90
2019-03-19T11:17:59.278Z,9.23
2019-03-19T11:20:41.296Z,8.89
2019-03-19T11:23:16.164Z,8.37
2019-03-19T11:25:57.336Z,7.96
2019-03-19T11:28:34.265Z,7.47
2019-03-19T11:31:09.877Z,7.06
2019-03-19T11:33:41.340Z,6.87
2019-03-19T11:36:15.108Z,6.81
2019-03-19T11:38:50.349Z,7.08
2019-03-19T11:41:22.419Z,7.81
2019-03-19T11:43:55.735Z,8.25
2019-03-19T11:46:30.711Z,8.55
2019-03-19T11:49:01.516Z,8.17
2019-03-19T11:51:32.609Z,7.92
2019-03-19T11:54:09.383Z,8.22
2019-03-19T11:56:40.209Z,8.29
2019-03-19T11:59:12.654Z,8.46
2019-03-19T12:01:46.591Z,8.12
2019-03-19T12:04:17.420Z,7.96
2019-03-19T12:06:48.335Z,7.90
2019-03-19T12:09:22.557Z,7.69
2019-03-19T12:11:54.475Z,7.44
2019-03-19T12:14:25.245Z,7.36
2019-03-19T12:16:57.552Z,7.03
2019-03-19T12:19:30.649Z,6.86
2019-03-19T12:22:01.533Z,6.91
2019-03-19T12:24:35.895Z,6.86
2019-03-19T12:27:13.209Z,6.76
2019-03-19T12:29:46.701Z,6.64
2019-03-19T12:32:20.618Z,6.61
2019-03-19T12:34:51.914Z,6.51
2019-03-19T12:37:26.547Z,6.42
2019-03-19T12:40:03.877Z,6.41
2019-03-19T12:42:36.438Z,6.34
2019-03-19T12:45:08.772Z,6.26
2019-03-19T12:47:47.885Z,6.29
2019-03-19T12:50:27.315Z,6.29
2019-03-19T12:53:01.604Z,6.24
2019-03-19T12:55:32.408Z,6.34
2019-03-19T12:58:06.459Z,6.19
2019-03-19T13:00:38.421Z,6.22
2019-03-19T13:03:09.822Z,6.26
2019-03-19T13:05:41.425Z,6.22
2019-03-19T13:08:13.357Z,6.31
2019-03-19T13:10:44.158Z,6.16
2019-03-19T13:13:17.440Z,6.15
2019-03-19T13:15:48.998Z,6.20
2019-03-19T13:18:21.430Z,6.27
2019-03-19T13:20:53.669Z,6.18
2019-03-19T13:23:26.247Z,6.02
2019-03-19T13:25:57.142Z,5.78
2019-03-19T13:28:29.312Z,5.80
2019-03-19T13:31:03.229Z,5.85
2019-03-19T13:33:35.260Z,5.85
2019-03-19T13:36:09.653Z,5.76
2019-03-19T13:38:40.513Z,5.79
2019-03-19T13:41:17.661Z,5.86
2019-03-19T13:43:50.761Z,5.80
2019-03-19T13:46:21.613Z,5.70
2019-03-19T13:48:55.388Z,5.65
2019-03-19T13:51:31.968Z,5.67
2019-03-19T13:54:03.152Z,5.87
2019-03-19T13:56:34.412Z,6.13
2019-03-19T13:59:05.419Z,6.34
2019-03-19T14:01:37.795Z,6.38
2019-03-19T14:04:08.601Z,6.43
2019-03-19T14:06:42.180Z,6.29
2019-03-19T14:09:23.662Z,6.07
2019-03-19T14:11:54.662Z,6.00
2019-03-19T14:14:25.943Z,5.87
2019-03-19T14:16:59.361Z,5.89
2019-03-19T14:19:30.526Z,5.97
2019-03-19T14:22:01.376Z,5.88
2019-03-19T14:24:32.683Z,5.89
2019-03-19T14:27:03.493Z,5.80
2019-03-19T14:29:53.364Z,5.83
2019-03-19T14:32:28.621Z,5.90
2019-03-19T14:35:02.058Z,5.98
2019-03-19T14:37:33.239Z,6.01
2019-03-19T14:40:04.127Z,5.93
2019-03-19T14:42:41.967Z,5.96
2019-03-19T14:45:16.426Z,6.08
2019-03-19T14:47:47.268Z,6.03
2019-03-19T14:50:26.379Z,6.25
2019-03-19T14:52:58.011Z,6.36
2019-03-19T14:55:29.280Z,6.36
2019-03-19T14:58:00.617Z,6.18
2019-03-19T15:00:35.309Z,6.07
2019-03-19T15:03:08.172Z,6.04
2019-03-19T15:05:39.168Z,6.01
2019-03-19T15:08:11.958Z,5.91
2019-03-19T15:11:02.194Z,5.84
2019-03-19T15:13:55.325Z,5.92
2019-03-19T15:16:49.122Z,5.95
2019-03-19T15:19:22.359Z,5.96
2019-03-19T15:21:59.320Z,5.92
2019-03-19T15:24:33.937Z,5.92
2019-03-19T15:27:08.450Z,5.84
2019-03-19T15:29:39.808Z,5.86
2019-03-19T15:32:13.843Z,5.82
2019-03-19T15:34:46.541Z,5.73
2019-03-19T15:37:26.946Z,5.63
2019-03-19T15:40:01.911Z,5.63
2019-03-19T15:42:33.385Z,5.62
2019-03-19T15:45:07.512Z,5.68
2019-03-19T15:47:39.687Z,5.75
2019-03-19T15:50:12.890Z,5.77
2019-03-19T15:52:46.606Z,5.70
2019-03-19T15:55:17.504Z,5.65
2019-03-19T15:57:55.762Z,5.68
2019-03-19T16:00:27.199Z,5.68
2019-03-19T16:02:59.840Z,5.73
2019-03-19T16:05:31.104Z,5.74
2019-03-19T16:08:07.926Z,5.67
2019-03-19T16:10:51.089Z,5.59
2019-03-19T16:13:23.897Z,5.51
2019-03-19T16:15:58.012Z,5.46
2019-03-19T16:18:30.162Z,5.40
2019-03-19T16:21:01.379Z,5.33
2019-03-19T16:23:40.976Z,5.31
2019-03-19T16:26:11.767Z,5.21
2019-03-19T16:28:46.097Z,5.18
2019-03-19T16:31:17.212Z,5.11
2019-03-19T16:33:52.043Z,5.11
2019-03-19T16:36:23.277Z,5.09
2019-03-19T16:38:55.962Z,5.05
2019-03-19T16:41:32.335Z,5.01
2019-03-19T16:44:09.262Z,4.90
2019-03-19T16:46:41.614Z,4.84
2019-03-19T16:49:14.966Z,4.79
2019-03-19T16:51:49.559Z,4.74
2019-03-19T16:54:20.495Z,4.69
2019-03-19T16:56:54.517Z,4.65
2019-03-19T16:59:26.808Z,4.59
2019-03-19T17:02:01.683Z,4.51
2019-03-19T17:04:35.751Z,4.47
2019-03-19T17:07:12.554Z,4.43
2019-03-19T17:09:50.861Z,4.41
2019-03-19T17:12:30.645Z,4.31
2019-03-19T17:15:01.759Z,4.26
2019-03-19T17:17:32.891Z,4.18
2019-03-19T17:20:04.211Z,4.06
2019-03-19T17:22:35.524Z,3.99
2019-03-19T17:25:10.263Z,3.93
2019-03-19T17:27:47.383Z,3.87
2019-03-19T17:30:25.137Z,3.84
2019-03-19T17:33:01.444Z,3.81
2019-03-19T17:35:32.222Z,3.77
2019-03-19T17:38:08.803Z,3.70
2019-03-19T17:40:41.907Z,3.67
2019-03-19T17:43:14.230Z,3.67
2019-03-19T17:45:45.984Z,3.61
2019-03-19T17:48:21.385Z,3.56
2019-03-19T17:50:58.626Z,3.54
2019-03-19T17:53:29.651Z,3.48
2019-03-19T17:56:09.917Z,3.49
2019-03-19T17:58:41.667Z,3.50
2019-03-19T18:01:17.422Z,3.44
2019-03-19T18:03:48.111Z,3.36
2019-03-19T18:06:20.119Z,3.33
2019-03-19T18:08:52.265Z,3.33
2019-03-19T18:11:25.376Z,3.29
2019-03-19T18:13:58.443Z,3.28
2019-03-19T18:16:30.050Z,3.20
2019-03-19T18:19:02.388Z,3.18
2019-03-19T18:21:33.507Z,3.18
2019-03-19T18:24:10.102Z,3.16
2019-03-19T18:26:48.503Z,3.12
2019-03-19T18:29:20.697Z,3.07
2019-03-19T18:31:57.326Z,3.01
2019-03-19T18:34:28.495Z,3.00
2019-03-19T18:36:59.585Z,2.96
2019-03-19T18:39:31.038Z,2.96
2019-03-19T18:42:02.110Z,2.93
2019-03-19T18:44:33.039Z,2.91
2019-03-19T18:47:04.295Z,2.88
2019-03-19T18:49:35.093Z,2.88
2019-03-19T18:52:06.361Z,2.84
2019-03-19T18:54:43.588Z,2.81
2019-03-19T18:57:16.597Z,2.80
2019-03-19T18:59:52.292Z,2.81
2019-03-19T19:02:25.112Z,2.78
2019-03-19T19:04:59.778Z,2.75
2019-03-19T19:07:42.192Z,2.73
2019-03-19T19:10:16.530Z,2.70
2019-03-19T19:12:52.194Z,2.68
2019-03-19T19:15:25.081Z,2.65
2019-03-19T19:17:56.379Z,2.61
2019-03-19T19:20:32.606Z,2.55
2019-03-19T19:23:03.562Z,2.51
2019-03-19T19:25:35.015Z,2.51
2019-03-19T19:28:05.866Z,2.49
2019-03-19T19:30:43.520Z,2.43
2019-03-19T19:33:18.137Z,2.39
2019-03-19T19:35:54.330Z,2.36
2019-03-19T19:38:35.472Z,2.33
2019-03-19T19:41:13.076Z,2.33
2019-03-19T19:43:53.162Z,2.31
2019-03-19T19:46:24.413Z,2.26
2019-03-19T19:48:57.693Z,2.20
2019-03-19T19:51:28.556Z,2.17
2019-03-19T19:54:04.036Z,2.16
2019-03-19T19:56:46.735Z,2.11
2019-03-19T19:59:26.391Z,2.09
2019-03-19T20:02:29.640Z,2.08
2019-03-19T20:05:05.827Z,2.07
2019-03-19T20:07:49.195Z,2.01
2019-03-19T20:10:29.087Z,2.01
2019-03-19T20:13:00.230Z,2.02
2019-03-19T20:15:39.454Z,1.98
2019-03-19T20:18:12.266Z,1.93
2019-03-19T20:20:51.076Z,1.92
2019-03-19T20:23:25.203Z,1.91
2019-03-19T20:26:00.043Z,1.95
2019-03-19T20:28:33.366Z,1.98
2019-03-19T20:31:11.410Z,1.97
2019-03-19T20:33:49.777Z,1.97
2019-03-19T20:36:30.647Z,2.01
2019-03-19T20:39:01.744Z,2.01
2019-03-19T20:41:36.535Z,1.99
2019-03-19T20:44:09.630Z,1.98
2019-03-19T20:46:41.121Z,1.97
2019-03-19T20:49:15.705Z,1.97
2019-03-19T20:51:54.507Z,1.97
2019-03-19T20:54:25.299Z,1.97
2019-03-19T20:57:16.053Z,1.94
2019-03-19T20:59:59.355Z,1.95
2019-03-19T21:02:33.829Z,1.93
2019-03-19T21:05:08.091Z,1.90
2019-03-19T21:07:40.976Z,1.84
2019-03-19T21:10:14.324Z,1.83
2019-03-19T21:12:45.764Z,1.79
2019-03-19T21:15:28.998Z,1.77
2019-03-19T21:18:00.194Z,1.74
2019-03-19T21:20:31.328Z,1.71
2019-03-19T21:23:02.779Z,1.71
2019-03-19T21:25:36.190Z,1.65
2019-03-19T21:28:14.451Z,1.62
2019-03-19T21:30:46.747Z,1.66
2019-03-19T21:33:17.971Z,1.67
2019-03-19T21:35:49.598Z,1.64
2019-03-19T21:38:21.530Z,1.62
2019-03-19T21:40:55.895Z,1.60
2019-03-19T21:43:27.081Z,1.62
2019-03-19T21:46:02.561Z,1.63
2019-03-19T21:48:33.846Z,1.63
2019-03-19T21:51:11.662Z,1.66
2019-03-19T21:53:46.868Z,1.66
2019-03-19T21:56:23.138Z,1.70
2019-03-19T21:59:03.001Z,1.70
2019-03-19T22:01:38.400Z,1.73
2019-03-19T22:04:10.637Z,1.71
2019-03-19T22:06:48.029Z,1.70
2019-03-19T22:09:24.177Z,1.69
2019-03-19T22:11:57.350Z,1.69
2019-03-19T22:14:30.325Z,1.69
2019-03-19T22:17:01.479Z,1.68
2019-03-19T22:19:32.827Z,1.68
2019-03-19T22:22:09.403Z,1.69
2019-03-19T22:24:42.768Z,1.66
2019-03-19T22:27:13.550Z,1.66
2019-03-19T22:29:51.274Z,1.66
2019-03-19T22:32:22.184Z,1.65
2019-03-19T22:34:53.204Z,1.67
2019-03-19T22:37:27.975Z,1.69
2019-03-19T22:39:58.760Z,1.72
2019-03-19T22:42:29.562Z,1.70
2019-03-19T22:45:02.618Z,1.68
2019-03-19T22:47:34.833Z,1.65
2019-03-19T22:50:05.795Z,1.66
2019-03-19T22:52:42.356Z,1.66
2019-03-19T22:55:15.998Z,1.62
2019-03-19T22:57:47.882Z,1.57
2019-03-19T23:00:37.495Z,1.57
2019-03-19T23:03:12.321Z,1.53
2019-03-19T23:05:43.148Z,1.50
2019-03-19T23:08:14.765Z,1.49
2019-03-19T23:10:48.806Z,1.49
2019-03-19T23:13:19.720Z,1.47
2019-03-19T23:15:50.962Z,1.47
2019-03-19T23:18:21.797Z,1.43
2019-03-19T23:20:52.703Z,1.41
2019-03-19T23:23:23.512Z,1.40
2019-03-19T23:25:58.003Z,1.39
2019-03-19T23:28:28.893Z,1.39
2019-03-19T23:30:59.720Z,1.35
2019-03-19T23:33:30.556Z,1.34
2019-03-19T23:36:01.308Z,1.32
2019-03-19T23:38:35.365Z,1.30
2019-03-19T23:41:06.644Z,1.31
2019-03-19T23:43:40.378Z,1.34
2019-03-19T23:46:11.282Z,1.33
2019-03-19T23:48:43.358Z,1.34
2019-03-19T23:51:14.421Z,1.34
2019-03-19T23:53:45.503Z,1.33
2019-03-19T23:56:19.618Z,1.31
2019-03-19T23:58:50.546Z,1.34
